首页
METAR-TAF:

METAR-TAF

机场 :

巴勒克埃西爾, 土耳其

纬度: 39-37N, 经度: 027-55E, 海拔: 101米

当前天气观测

该预报发布于58分钟前的15:50 UTC
风速6节,风向
温度 26°C
湿度 48%
气压 1018 hPa
能见度10公里或以上
1500米以下无云,无积雨云

METAR: LTBF 231550Z 35006KT CAVOK 26/14 Q1018 NOSIG

时间: 19:48 (16:48 UTC)

预报

该预报发布于3小时和8分钟前的13:40 UTC
预报有效从23日的 15点(UTC)到 23日的 24点(UTC)
风速5节,风向
能见度10公里或以上
1500米以下无云,无积雨云

TAF: LTBF 231340Z 2315/2324 01005KT CAVOK

超过4000个机场的气象观测和天气预报(METAR&TAF报告)。

可查询的气象台以黄色和红色小点在地图上表示。

将鼠标移到小点上方,可查看气象台名称。

然后点击查看天气观测和预报。

如需切换地图:点击带黑十字的绿色按钮放大地图;点击带横线的绿色按钮缩小地图;或者点击绿色箭头查看邻近地区的地图。


METAR-TAF: